createdAt,value
2023-04-27T00:00:01.722Z,98958.77
2023-04-27T00:02:58.034Z,98957.41
2023-04-27T00:05:27.188Z,98963.55
2023-04-27T00:07:55.777Z,98961.73
2023-04-27T00:10:24.326Z,98959.20
2023-04-27T00:12:52.958Z,98957.55
2023-04-27T00:15:21.695Z,98956.75
2023-04-27T00:17:50.565Z,98957.46
2023-04-27T00:20:19.677Z,98957.25
2023-04-27T00:22:48.616Z,98959.52
2023-04-27T00:25:17.401Z,98954.90
2023-04-27T00:27:45.829Z,98953.11
2023-04-27T00:30:14.511Z,98953.69
2023-04-27T00:32:43.373Z,98951.66
2023-04-27T00:35:11.955Z,98955.13
2023-04-27T00:37:40.549Z,98954.48
2023-04-27T00:40:10.139Z,98954.54
2023-04-27T00:42:38.974Z,98952.20
2023-04-27T00:45:10.659Z,98955.23
2023-04-27T00:47:40.375Z,98958.10
2023-04-27T00:50:10.811Z,98958.15
2023-04-27T00:52:39.791Z,98958.61
2023-04-27T00:55:08.941Z,98954.36
2023-04-27T00:57:37.677Z,98950.64
2023-04-27T01:00:07.510Z,98948.67
2023-04-27T01:02:37.346Z,98954.11
2023-04-27T01:05:08.482Z,98951.67
2023-04-27T01:07:39.017Z,98949.41
2023-04-27T01:10:08.496Z,98949.95
2023-04-27T01:12:37.839Z,98953.33
2023-04-27T01:15:08.340Z,98952.18
2023-04-27T01:17:37.013Z,98953.06
2023-04-27T01:20:09.064Z,98954.27
2023-04-27T01:22:38.177Z,98956.05
2023-04-27T01:25:08.349Z,98957.08
2023-04-27T01:27:37.130Z,98958.36
2023-04-27T01:30:06.896Z,98958.30
2023-04-27T01:32:38.933Z,98957.79
2023-04-27T01:35:08.120Z,98959.39
2023-04-27T01:37:36.694Z,98958.89
2023-04-27T01:40:07.107Z,98960.34
2023-04-27T01:42:35.916Z,98957.09
2023-04-27T01:45:04.938Z,98957.04
2023-04-27T01:47:33.786Z,98958.29
2023-04-27T01:50:02.774Z,98959.13
2023-04-27T01:52:31.477Z,98960.15
2023-04-27T01:55:00.364Z,98960.50
2023-04-27T01:57:29.049Z,98962.14
2023-04-27T01:59:57.576Z,98961.52
2023-04-27T02:02:26.559Z,98963.70
2023-04-27T02:04:55.707Z,98963.96
2023-04-27T02:07:24.309Z,98966.70
2023-04-27T02:09:53.726Z,98965.11
2023-04-27T02:12:22.298Z,98967.25
2023-04-27T02:14:50.739Z,98969.71
2023-04-27T02:17:19.584Z,98968.67
2023-04-27T02:19:48.275Z,98969.73
2023-04-27T02:22:16.762Z,98970.14
2023-04-27T02:24:45.497Z,98976.05
2023-04-27T02:27:14.387Z,98975.60
2023-04-27T02:29:43.547Z,98976.93
2023-04-27T02:32:12.824Z,98978.27
2023-04-27T02:34:41.663Z,98978.02
2023-04-27T02:37:10.415Z,98979.58
2023-04-27T02:39:39.192Z,98975.84
2023-04-27T02:42:08.114Z,98975.97
2023-04-27T02:44:37.639Z,98973.84
2023-04-27T02:47:06.548Z,98975.59
2023-04-27T02:49:37.905Z,98972.64
2023-04-27T02:52:07.100Z,98975.58
2023-04-27T02:54:36.529Z,98976.30
2023-04-27T02:57:05.134Z,98978.98
2023-04-27T02:59:33.700Z,98978.04
2023-04-27T03:02:02.481Z,98981.57
2023-04-27T03:04:31.066Z,98978.64
2023-04-27T03:06:59.889Z,98979.20
2023-04-27T03:09:28.606Z,98981.23
2023-04-27T03:11:59.704Z,98984.86
2023-04-27T03:14:29.043Z,98981.92
2023-04-27T03:16:57.969Z,98986.44
2023-04-27T03:19:26.532Z,98985.75
2023-04-27T03:21:55.262Z,98984.42
2023-04-27T03:24:26.207Z,98988.52
2023-04-27T03:26:54.660Z,98983.99
2023-04-27T03:29:23.541Z,98986.36
2023-04-27T03:31:52.417Z,98984.92
2023-04-27T03:34:22.131Z,98986.50
2023-04-27T03:36:51.202Z,98984.94
2023-04-27T03:39:20.313Z,98987.35
2023-04-27T03:41:49.035Z,98985.15
2023-04-27T03:44:17.636Z,98989.02
2023-04-27T03:46:46.454Z,98987.43
2023-04-27T03:49:15.589Z,98993.20
2023-04-27T03:51:44.527Z,98991.90
2023-04-27T03:54:13.284Z,98998.42
2023-04-27T03:56:42.330Z,99001.44
2023-04-27T03:59:11.169Z,99000.89
2023-04-27T04:01:44.915Z,99002.36
2023-04-27T04:04:13.536Z,99003.98
2023-04-27T04:06:43.839Z,99009.05
2023-04-27T04:09:14.210Z,99013.27
2023-04-27T04:11:43.066Z,99015.29
2023-04-27T04:14:13.036Z,99020.39
2023-04-27T04:16:42.251Z,99022.65
2023-04-27T04:19:11.406Z,99021.95
2023-04-27T04:21:39.987Z,99025.90
2023-04-27T04:24:10.712Z,99027.52
2023-04-27T04:26:39.719Z,99032.95
2023-04-27T04:29:10.791Z,99035.39
2023-04-27T04:31:40.338Z,99037.56
2023-04-27T04:34:11.693Z,99041.52
2023-04-27T04:36:41.567Z,99046.63
2023-04-27T04:39:10.228Z,99044.83
2023-04-27T04:41:39.082Z,99046.70
2023-04-27T04:44:09.588Z,99047.52
2023-04-27T04:46:38.908Z,99049.75
2023-04-27T04:49:07.829Z,99048.55
2023-04-27T04:51:36.861Z,99053.22
2023-04-27T04:54:05.328Z,99053.83
2023-04-27T04:56:33.802Z,99054.99
2023-04-27T04:59:03.057Z,99058.05
2023-04-27T05:01:33.451Z,99057.98
2023-04-27T05:04:02.248Z,99065.09
2023-04-27T05:06:32.120Z,99062.96
2023-04-27T05:09:00.808Z,99065.82
2023-04-27T05:11:30.354Z,99066.61
2023-04-27T05:13:59.363Z,99069.79
2023-04-27T05:16:28.474Z,99069.20
2023-04-27T05:18:57.393Z,99070.02
2023-04-27T05:21:26.070Z,99070.31
2023-04-27T05:23:54.814Z,99066.43
2023-04-27T05:26:23.223Z,99067.10
2023-04-27T05:28:52.035Z,99073.08
2023-04-27T05:31:20.832Z,99075.84
2023-04-27T05:33:49.405Z,99076.00
2023-04-27T05:36:18.286Z,99076.60
2023-04-27T05:38:46.847Z,99078.65
2023-04-27T05:41:15.756Z,99079.29
2023-04-27T05:43:44.608Z,99084.42
2023-04-27T05:46:16.616Z,99086.30
2023-04-27T05:48:45.080Z,99090.73
2023-04-27T05:51:14.047Z,99089.25
2023-04-27T05:53:44.915Z,99091.93
2023-04-27T05:56:13.361Z,99090.96
2023-04-27T05:58:42.883Z,99093.36
2023-04-27T06:01:11.559Z,99096.09
2023-04-27T06:03:40.909Z,99097.16
2023-04-27T06:06:09.917Z,99095.89
2023-04-27T06:08:39.757Z,99098.70
2023-04-27T06:11:08.641Z,99105.29
2023-04-27T06:13:37.466Z,99107.83
2023-04-27T06:16:06.294Z,99105.02
2023-04-27T06:18:35.262Z,99108.23
2023-04-27T06:21:04.264Z,99108.91
2023-04-27T06:23:32.935Z,99113.58
2023-04-27T06:26:02.496Z,99116.27
2023-04-27T06:28:31.857Z,99114.60
2023-04-27T06:31:00.446Z,99115.13
2023-04-27T06:33:29.321Z,99113.84
2023-04-27T06:35:59.060Z,99111.39
2023-04-27T06:38:27.603Z,99117.13
2023-04-27T06:40:56.655Z,99116.03
2023-04-27T06:43:25.933Z,99113.47
2023-04-27T06:45:54.415Z,99119.07
2023-04-27T06:48:23.011Z,99117.65
2023-04-27T06:50:52.526Z,99120.42
2023-04-27T06:53:21.057Z,99127.73
2023-04-27T06:55:51.236Z,99123.51
2023-04-27T06:58:20.269Z,99119.95
2023-04-27T07:00:48.769Z,99117.27
2023-04-27T07:03:17.570Z,99118.41
2023-04-27T07:05:47.366Z,99117.05
2023-04-27T07:08:15.834Z,99118.73
2023-04-27T07:10:44.237Z,99115.63
2023-04-27T07:13:14.365Z,99113.52
2023-04-27T07:15:43.068Z,99117.75
2023-04-27T07:18:12.506Z,99109.29
2023-04-27T07:20:43.540Z,99107.10
2023-04-27T07:23:12.167Z,99110.45
2023-04-27T07:25:40.584Z,99103.23
2023-04-27T07:28:09.549Z,99096.19
2023-04-27T07:30:38.519Z,99102.95
2023-04-27T07:33:07.831Z,99102.16
2023-04-27T07:35:37.777Z,99101.29
2023-04-27T07:38:07.822Z,99099.17
2023-04-27T07:40:36.762Z,99103.14
2023-04-27T07:43:06.378Z,99103.52
2023-04-27T07:45:38.238Z,99100.44
2023-04-27T07:48:07.321Z,99097.05
2023-04-27T07:50:36.323Z,99096.80
2023-04-27T07:53:04.869Z,99098.13
2023-04-27T07:55:34.381Z,99101.88
2023-04-27T07:58:05.147Z,99103.04
2023-04-27T08:00:34.246Z,99103.73
2023-04-27T08:03:04.286Z,99109.24
2023-04-27T08:05:33.498Z,99108.85
2023-04-27T08:08:02.435Z,99102.63
2023-04-27T08:10:31.660Z,99108.69
2023-04-27T08:13:00.644Z,99105.82
2023-04-27T08:15:40.533Z,99109.09
2023-04-27T08:18:16.084Z,99111.74
2023-04-27T08:20:44.862Z,99108.17
2023-04-27T08:23:14.010Z,99116.34
2023-04-27T08:25:42.648Z,99116.76
2023-04-27T08:28:11.278Z,99116.42
2023-04-27T08:30:39.733Z,99120.27
2023-04-27T08:33:09.287Z,99119.73
2023-04-27T08:35:38.455Z,99117.97
2023-04-27T08:38:06.941Z,99121.49
2023-04-27T08:40:35.767Z,99120.12
2023-04-27T08:43:04.349Z,99119.61
2023-04-27T08:45:32.911Z,99122.91
2023-04-27T08:48:01.983Z,99126.88
2023-04-27T08:50:31.809Z,99130.96
2023-04-27T08:53:00.939Z,99129.50
2023-04-27T08:55:36.126Z,99131.34
2023-04-27T08:58:04.694Z,99128.33
2023-04-27T09:00:42.403Z,99128.14
2023-04-27T09:03:26.898Z,99129.58
2023-04-27T09:06:05.195Z,99134.30
2023-04-27T09:08:45.844Z,99134.55
2023-04-27T09:11:35.368Z,99137.55
2023-04-27T09:14:19.882Z,99133.33
2023-04-27T09:16:59.827Z,99134.41
2023-04-27T09:19:29.981Z,99132.81
2023-04-27T09:22:09.214Z,99135.05
2023-04-27T09:24:38.101Z,99137.11
2023-04-27T09:27:08.964Z,99137.98
2023-04-27T09:29:40.588Z,99140.77
2023-04-27T09:32:21.177Z,99140.88
2023-04-27T09:34:50.093Z,99140.23
2023-04-27T09:37:19.684Z,99134.56
2023-04-27T09:39:50.736Z,99136.00
2023-04-27T09:42:20.165Z,99140.05
2023-04-27T09:44:49.389Z,99140.45
2023-04-27T09:47:18.338Z,99137.19
2023-04-27T09:49:47.725Z,99138.50
2023-04-27T09:52:16.251Z,99134.75
2023-04-27T09:54:46.058Z,99135.67
2023-04-27T09:57:24.497Z,99134.75
2023-04-27T10:00:25.483Z,99134.21
2023-04-27T10:03:24.628Z,99131.30
2023-04-27T10:06:27.933Z,99133.16
2023-04-27T10:08:57.809Z,99131.34
2023-04-27T10:11:44.407Z,99129.81
2023-04-27T10:14:18.643Z,99125.85
2023-04-27T10:16:58.428Z,99125.04
2023-04-27T10:19:27.220Z,99125.77
2023-04-27T10:22:05.755Z,99127.02
2023-04-27T10:24:43.231Z,99131.41
2023-04-27T10:27:12.716Z,99129.34
2023-04-27T10:29:46.438Z,99133.88
2023-04-27T10:32:24.665Z,99130.92
2023-04-27T10:35:11.789Z,99130.23
2023-04-27T10:37:42.359Z,99130.58
2023-04-27T10:40:18.692Z,99130.20
2023-04-27T10:42:49.794Z,99129.68
2023-04-27T10:45:31.620Z,99130.02
2023-04-27T10:48:09.325Z,99132.11
2023-04-27T10:50:38.506Z,99130.55
2023-04-27T10:53:08.485Z,99137.17
2023-04-27T10:55:51.070Z,99139.11
2023-04-27T10:58:45.286Z,99137.02
2023-04-27T11:01:25.721Z,99139.09
2023-04-27T11:03:59.197Z,99137.52
2023-04-27T11:06:35.453Z,99137.02
2023-04-27T11:09:04.757Z,99139.64
2023-04-27T11:11:33.409Z,99139.13
2023-04-27T11:14:03.995Z,99137.39
2023-04-27T11:16:35.294Z,99136.70
2023-04-27T11:19:07.657Z,99136.86
2023-04-27T11:21:36.393Z,99138.76
2023-04-27T11:24:15.288Z,99139.09
2023-04-27T11:26:51.958Z,99137.17
2023-04-27T11:29:21.270Z,99141.02
2023-04-27T11:31:52.461Z,99141.20
2023-04-27T11:34:25.509Z,99143.48
2023-04-27T11:37:10.820Z,99141.57
2023-04-27T11:39:47.312Z,99139.80
2023-04-27T11:42:19.164Z,99142.42
2023-04-27T11:45:09.306Z,99138.42
2023-04-27T11:47:54.944Z,99133.89
2023-04-27T11:50:36.284Z,99128.91
2023-04-27T11:53:04.937Z,99130.24
2023-04-27T11:56:05.484Z,99129.59
2023-04-27T11:58:36.380Z,99130.39
2023-04-27T12:01:05.986Z,99127.97
2023-04-27T12:03:35.533Z,99123.45
2023-04-27T12:06:21.647Z,99126.23
2023-04-27T12:08:53.392Z,99124.65
2023-04-27T12:11:27.130Z,99127.27
2023-04-27T12:13:56.464Z,99127.09
2023-04-27T12:16:26.099Z,99126.59
2023-04-27T12:18:57.264Z,99123.80
2023-04-27T12:21:26.011Z,99121.54
2023-04-27T12:24:00.308Z,99124.67
2023-04-27T12:26:29.666Z,99129.88
2023-04-27T12:29:00.500Z,99128.83
2023-04-27T12:31:29.313Z,99130.91
2023-04-27T12:34:01.713Z,99132.09
2023-04-27T12:36:32.279Z,99132.40
2023-04-27T12:39:17.284Z,99136.48
2023-04-27T12:41:50.715Z,99132.48
2023-04-27T12:44:20.345Z,99132.49
2023-04-27T12:46:49.118Z,99129.38
2023-04-27T12:49:18.440Z,99127.80
2023-04-27T12:51:52.191Z,99131.10
2023-04-27T12:54:21.082Z,99132.33
2023-04-27T12:56:49.450Z,99131.11
2023-04-27T12:59:18.270Z,99124.98
2023-04-27T13:01:48.679Z,99121.83
2023-04-27T13:04:22.479Z,99121.34
2023-04-27T13:06:51.521Z,99125.88
2023-04-27T13:09:19.978Z,99121.89
2023-04-27T13:11:48.773Z,99124.66
2023-04-27T13:14:17.719Z,99128.29
2023-04-27T13:16:46.557Z,99128.81
2023-04-27T13:19:24.707Z,99127.92
2023-04-27T13:21:55.472Z,99127.55
2023-04-27T13:24:25.345Z,99131.00
2023-04-27T13:27:05.356Z,99132.04
2023-04-27T13:29:34.221Z,99128.02
2023-04-27T13:32:02.773Z,99130.28
2023-04-27T13:34:31.960Z,99129.05
2023-04-27T13:37:00.765Z,99127.70
2023-04-27T13:39:29.347Z,99128.28
2023-04-27T13:41:58.131Z,99130.92
2023-04-27T13:44:27.201Z,99125.36
2023-04-27T13:46:56.124Z,99124.48
2023-04-27T13:49:24.980Z,99124.84
2023-04-27T13:51:53.523Z,99127.79
2023-04-27T13:54:22.226Z,99128.14
2023-04-27T13:56:51.651Z,99124.83
2023-04-27T13:59:20.441Z,99126.03
2023-04-27T14:01:52.105Z,99121.66
2023-04-27T14:04:20.920Z,99120.09
2023-04-27T14:06:50.131Z,99124.05
2023-04-27T14:09:19.139Z,99123.85
2023-04-27T14:11:56.496Z,99126.63
2023-04-27T14:14:26.398Z,99130.77
2023-04-27T14:16:57.297Z,99127.62
2023-04-27T14:19:27.754Z,99131.95
2023-04-27T14:21:56.582Z,99128.73
2023-04-27T14:24:26.418Z,99126.41
2023-04-27T14:26:55.232Z,99126.89
2023-04-27T14:29:25.458Z,99124.25
2023-04-27T14:31:54.168Z,99120.45
2023-04-27T14:34:23.034Z,99120.84
2023-04-27T14:36:52.006Z,99121.73
2023-04-27T14:39:20.554Z,99122.45
2023-04-27T14:41:49.358Z,99117.77
2023-04-27T14:44:18.213Z,99122.48
2023-04-27T14:46:47.012Z,99121.76
2023-04-27T14:49:16.828Z,99123.64
2023-04-27T14:51:45.898Z,99120.78
2023-04-27T14:54:14.509Z,99125.27
2023-04-27T14:56:44.665Z,99128.75
2023-04-27T14:59:13.693Z,99126.49
2023-04-27T15:01:42.766Z,99125.67
2023-04-27T15:04:13.557Z,99125.16
2023-04-27T15:06:42.333Z,99123.75
2023-04-27T15:09:12.242Z,99124.98
2023-04-27T15:11:41.911Z,99120.66
2023-04-27T15:14:10.893Z,99126.60
2023-04-27T15:16:39.549Z,99123.66
2023-04-27T15:19:09.084Z,99124.02
2023-04-27T15:21:38.193Z,99120.52
2023-04-27T15:24:06.813Z,99121.88
2023-04-27T15:26:35.432Z,99124.29
2023-04-27T15:29:04.764Z,99121.35
2023-04-27T15:31:33.498Z,99124.79
2023-04-27T15:34:02.354Z,99126.33
2023-04-27T15:36:31.956Z,99122.98
2023-04-27T15:39:00.668Z,99125.92
2023-04-27T15:41:29.559Z,99125.63
2023-04-27T15:43:58.268Z,99128.25
2023-04-27T15:46:27.027Z,99124.95
2023-04-27T15:48:55.902Z,99123.76
2023-04-27T15:51:24.658Z,99122.36
2023-04-27T15:53:53.324Z,99125.31
2023-04-27T15:56:22.401Z,99123.02
2023-04-27T15:58:51.472Z,99123.60
2023-04-27T16:01:20.364Z,99123.52
2023-04-27T16:03:50.009Z,99122.51
2023-04-27T16:06:19.345Z,99121.38
2023-04-27T16:08:48.064Z,99122.87
2023-04-27T16:11:17.300Z,99124.39
2023-04-27T16:13:45.819Z,99128.24
2023-04-27T16:16:14.468Z,99123.77
2023-04-27T16:18:43.620Z,99122.83
2023-04-27T16:21:12.361Z,99123.56
2023-04-27T16:23:41.195Z,99121.58
2023-04-27T16:26:10.350Z,99123.63
2023-04-27T16:28:39.089Z,99125.84
2023-04-27T16:31:07.870Z,99125.61
2023-04-27T16:33:36.869Z,99125.42
2023-04-27T16:36:06.733Z,99123.13
2023-04-27T16:38:36.577Z,99120.34
2023-04-27T16:41:06.910Z,99122.87
2023-04-27T16:43:35.539Z,99122.34
2023-04-27T16:46:04.091Z,99125.29
2023-04-27T16:48:33.159Z,99124.67
2023-04-27T16:51:01.768Z,99120.52
2023-04-27T16:53:30.274Z,99121.02
2023-04-27T16:56:02.240Z,99122.24
2023-04-27T16:58:34.741Z,99123.88
2023-04-27T17:01:04.699Z,99128.84
2023-04-27T17:03:42.930Z,99124.06
2023-04-27T17:10:35.415Z,99125.43
2023-04-27T17:13:38.656Z,99125.58
2023-04-27T17:16:32.218Z,99121.88
2023-04-27T17:19:25.284Z,99121.67
2023-04-27T17:22:18.634Z,99122.84
2023-04-27T17:25:12.512Z,99123.85
2023-04-27T17:27:58.480Z,99126.48
2023-04-27T17:31:02.885Z,99120.95
2023-04-27T17:33:52.730Z,99119.84
2023-04-27T17:36:49.794Z,99117.89
2023-04-27T17:39:38.133Z,99118.02
2023-04-27T17:42:32.733Z,99119.58
2023-04-27T17:45:09.549Z,99124.71
2023-04-27T17:47:39.018Z,99122.56
2023-04-27T17:50:09.155Z,99125.10
2023-04-27T17:52:37.911Z,99127.97
2023-04-27T17:55:07.106Z,99127.48
2023-04-27T17:57:35.895Z,99129.11
2023-04-27T18:00:04.878Z,99126.11
2023-04-27T18:02:39.071Z,99125.72
2023-04-27T18:05:08.141Z,99128.40
2023-04-27T18:07:37.206Z,99130.59
2023-04-27T18:10:06.815Z,99132.71
2023-04-27T18:12:35.958Z,99141.86
2023-04-27T18:15:06.946Z,99144.69
2023-04-27T18:17:38.003Z,99147.89
2023-04-27T18:20:10.596Z,99147.63
2023-04-27T18:22:41.026Z,99150.11
2023-04-27T18:25:10.644Z,99147.98
2023-04-27T18:27:40.302Z,99149.39
2023-04-27T18:30:09.956Z,99151.09
2023-04-27T18:32:38.453Z,99152.38
2023-04-27T18:35:07.280Z,99156.82
2023-04-27T18:37:36.864Z,99159.86
2023-04-27T18:40:06.225Z,99162.95
2023-04-27T18:42:37.290Z,99163.58
2023-04-27T18:45:06.499Z,99164.98
2023-04-27T18:47:35.073Z,99166.68
2023-04-27T18:50:04.611Z,99176.27
2023-04-27T18:52:33.784Z,99177.43
2023-04-27T18:55:02.430Z,99181.19
2023-04-27T18:57:30.880Z,99181.27
2023-04-27T19:00:00.812Z,99184.23
2023-04-27T19:02:30.170Z,99183.64
2023-04-27T19:05:11.280Z,99182.70
2023-04-27T19:07:42.068Z,99181.59
2023-04-27T19:10:11.554Z,99185.27
2023-04-27T19:12:40.299Z,99186.27
2023-04-27T19:15:12.640Z,99189.48
2023-04-27T19:17:41.573Z,99192.17
2023-04-27T19:20:10.588Z,99191.38
2023-04-27T19:22:39.747Z,99192.30
2023-04-27T19:25:08.678Z,99187.80
2023-04-27T19:27:37.288Z,99184.65
2023-04-27T19:30:07.389Z,99187.02
2023-04-27T19:32:35.931Z,99186.63
2023-04-27T19:35:13.975Z,99192.44
2023-04-27T19:37:43.317Z,99188.84
2023-04-27T19:40:14.047Z,99187.70
2023-04-27T19:42:43.112Z,99196.55
2023-04-27T19:45:12.236Z,99197.98
2023-04-27T19:47:41.087Z,99197.66
2023-04-27T19:50:10.148Z,99201.16
2023-04-27T19:52:39.319Z,99204.19
2023-04-27T19:55:08.624Z,99203.58
2023-04-27T19:57:37.146Z,99205.88
2023-04-27T20:00:10.918Z,99206.64
2023-04-27T20:02:42.887Z,99200.80
2023-04-27T20:05:13.711Z,99199.17
2023-04-27T20:07:42.780Z,99200.30
2023-04-27T20:10:11.640Z,99198.77
2023-04-27T20:12:55.166Z,99201.64
2023-04-27T20:15:25.522Z,99198.98
2023-04-27T20:17:54.305Z,99200.67
2023-04-27T20:20:23.004Z,99200.52
2023-04-27T20:22:51.852Z,99194.99
2023-04-27T20:25:20.723Z,99196.77
2023-04-27T20:27:49.291Z,99189.65
2023-04-27T20:30:18.059Z,99191.73
2023-04-27T20:32:47.339Z,99193.46
2023-04-27T20:35:16.023Z,99198.98
2023-04-27T20:37:47.404Z,99201.41
2023-04-27T20:40:19.699Z,99198.20
2023-04-27T20:42:49.635Z,99198.20
2023-04-27T20:45:18.901Z,99198.80
2023-04-27T20:47:48.034Z,99196.66
2023-04-27T20:50:16.754Z,99194.32
2023-04-27T20:52:45.182Z,99193.77
2023-04-27T20:55:14.712Z,99190.89
2023-04-27T20:57:43.210Z,99196.53
2023-04-27T21:00:12.324Z,99195.02
2023-04-27T21:02:41.447Z,99191.92
2023-04-27T21:05:10.085Z,99193.27
2023-04-27T21:07:38.519Z,99193.76
2023-04-27T21:10:08.369Z,99192.42
2023-04-27T21:12:37.097Z,99189.00
2023-04-27T21:15:06.035Z,99188.21
2023-04-27T21:17:35.135Z,99185.23
2023-04-27T21:20:05.003Z,99182.52
2023-04-27T21:22:33.455Z,99181.58
2023-04-27T21:25:03.073Z,99179.36
2023-04-27T21:27:31.724Z,99173.55
2023-04-27T21:30:00.416Z,99173.06
2023-04-27T21:32:29.492Z,99175.00
2023-04-27T21:34:57.922Z,99175.51
2023-04-27T21:37:26.632Z,99178.13
2023-04-27T21:39:56.589Z,99179.54
2023-04-27T21:42:25.157Z,99181.59
2023-04-27T21:44:53.567Z,99182.65
2023-04-27T21:47:22.205Z,99179.95
2023-04-27T21:49:52.467Z,99177.19
2023-04-27T21:52:21.915Z,99177.36
2023-04-27T21:54:50.566Z,99175.72
2023-04-27T21:57:20.237Z,99174.99
2023-04-27T21:59:48.756Z,99176.39
2023-04-27T22:02:17.398Z,99173.27
2023-04-27T22:04:46.110Z,99180.05
2023-04-27T22:07:14.710Z,99174.59
2023-04-27T22:09:43.622Z,99174.55
2023-04-27T22:12:12.661Z,99170.71
2023-04-27T22:14:42.147Z,99170.16
2023-04-27T22:17:13.155Z,99174.46
2023-04-27T22:19:42.597Z,99173.36
2023-04-27T22:22:11.038Z,99172.92
2023-04-27T22:24:40.224Z,99172.75
2023-04-27T22:27:08.831Z,99169.47
2023-04-27T22:29:37.404Z,99173.89
2023-04-27T22:32:06.700Z,99174.85
2023-04-27T22:34:35.328Z,99173.54
2023-04-27T22:37:03.997Z,99170.59
2023-04-27T22:39:32.924Z,99170.79
2023-04-27T22:42:01.981Z,99176.36
2023-04-27T22:44:30.628Z,99177.30
2023-04-27T22:47:01.316Z,99174.94
2023-04-27T22:49:30.100Z,99172.21
2023-04-27T22:51:58.614Z,99168.68
2023-04-27T22:54:28.595Z,99174.31
2023-04-27T22:56:58.954Z,99174.61
2023-04-27T22:59:27.835Z,99173.95
2023-04-27T23:01:56.614Z,99177.06
2023-04-27T23:04:26.935Z,99174.98
2023-04-27T23:06:57.159Z,99168.80
2023-04-27T23:09:26.124Z,99161.28
2023-04-27T23:11:55.127Z,99162.48
2023-04-27T23:14:24.211Z,99163.02
2023-04-27T23:16:53.096Z,99167.22
2023-04-27T23:19:21.593Z,99164.23
2023-04-27T23:21:52.759Z,99165.52
2023-04-27T23:24:21.860Z,99165.02
2023-04-27T23:26:50.305Z,99162.45
2023-04-27T23:29:18.791Z,99159.98
2023-04-27T23:31:48.078Z,99160.22
2023-04-27T23:34:16.715Z,99158.57
2023-04-27T23:36:45.464Z,99156.84
2023-04-27T23:39:14.446Z,99161.84
2023-04-27T23:41:42.962Z,99159.93
2023-04-27T23:44:12.137Z,99154.73
2023-04-27T23:46:40.850Z,99152.41
2023-04-27T23:49:09.352Z,99152.02
2023-04-27T23:51:37.847Z,99155.23
2023-04-27T23:54:06.765Z,99154.11
2023-04-27T23:56:35.264Z,99149.38
2023-04-27T23:59:03.793Z,99146.60
